Queens, NY

5:10 PM EST on November 26, 2014 (GMT -0500)
Just West of Town Hall | Change Station
CLOSE
Current Station
Personal Weather Station
Location: Floral Park, NY
Elevation: 78 ft
Nearby Weather Stations

Elev 78 ft 40.72 °N, 73.71 °W | Updated 0 second ago

Rain
Rain
37.4 °F
Feels Like 33 °F
N
5.4
Wind Variable Wind from North
Gusts 8.1 mph

Today
High -- | Low -- °F
--% Chance of Precip.
Yesterday
High -- | Low -- °F
Precip. -- in
6:54 AM 4:29 PM
Waxing Crescent, 23% visible
Pressure 29.78 in
Visibility 8.0 miles
Clouds Overcast 1100 ft
Windchill 33 °F
Dew Point 33 °F
Humidity 83%
Rainfall 0.87 in
Snow Depth Not available.
UV 0 out of 12
Pollen .10 out of 12
Air Quality Not available.
Flu Activity Not available.
METAR KJFK 262151Z 02020G27KT 8SM -RA OVC011 03/01 A2978 RMK AO2 PK WND 02027/2151 SLP084 P0006 T00330011 $

More Conditions Fewer Conditions

Pressure 29.78 in
Visibility 8.0 miles
Clouds Overcast 1100 ft
Windchill 33 °F
Dew Point 33 °F
Humidity 83%
Rainfall 0.87 in
Snow Depth Not available.
UV 0 out of 12
Pollen .10 out of 12
Air Quality Not available.
Flu Activity Not available.
METAR KJFK 262151Z 02020G27KT 8SM -RA OVC011 03/01 A2978 RMK AO2 PK WND 02027/2151 SLP084 P0006 T00330011 $

More Conditions Fewer Conditions

10-Day Weather Forecast

Almanac

Astronomy

Nov. 26, 2014 Rise Set
Actual Time
Civil Twilight
Nautical Twilight
Astronomical Twilight
Moon
Length of Visible Light
Length of Day
Tomorrow will be .
, % of the Moon is Illuminated

Today's Extremes

State Highs State Lows

Community

WunderPhotos

Upload Photos

1,773,888 photos uploaded!

WunderBlogs® & News

Nearby

Air Quality

  Air Quality AQ Index Pollutant
Not available.

Snow Depth

Station Depth Elevation

Earthquake Activity

City Distance Mag. Time & Date
Minimum magnitude displayed is 2.5.

Coastal Water Temperatures

Place Temperature

Nearby Weather Stations